Pantego, Texas
Current Conditions -  °F | °C
As of 4:53 AM on Sunday 23 Nov 2014 (Local Time) from KGKY Reporting Station
Few Clouds Few Clouds  
Wind Chill: 55°   Ceiling: Unl
Heat Index: 55°   Visibility: 10mi
Dew Point: 52°   Wind: 5mph
Humidity: 89%   Direction: 150°SSE
Pressure: 29.61"   Gusts: NA
Location:  32.6916°N, 97.1334°W
Report Text: KGKY 231053Z AUTO 15004KT 10SM FEW007 13/11 A2961 RMK AO2 SLP021 T01280111
Loading
Personal Weather Stations






























Interactive Weather Map New forecast layout! Learn more

10-Day Weather Forecast

Advertisements
Track Severe Weather on mobile